sensor_id;sensor_type;location;lat;lon;timestamp;P1;durP1;ratioP1;P2;durP2;ratioP2
72761;SDS011;60886;55.034;73.150;2023-02-01T00:01:26;20.33;;;7.47;;
72761;SDS011;60886;55.034;73.150;2023-02-01T00:04:37;16.73;;;6.55;;
72761;SDS011;60886;55.034;73.150;2023-02-01T00:07:39;23.40;;;6.78;;
72761;SDS011;60886;55.034;73.150;2023-02-01T00:10:57;19.65;;;7.38;;
72761;SDS011;60886;55.034;73.150;2023-02-01T00:14:11;22.23;;;8.27;;
72761;SDS011;60886;55.034;73.150;2023-02-01T00:17:14;19.65;;;7.30;;
72761;SDS011;60886;55.034;73.150;2023-02-01T00:20:25;24.00;;;7.53;;
72761;SDS011;60886;55.034;73.150;2023-02-01T00:23:40;21.48;;;8.11;;
72761;SDS011;60886;55.034;73.150;2023-02-01T00:26:43;33.58;;;12.43;;
72761;SDS011;60886;55.034;73.150;2023-02-01T00:29:45;31.77;;;11.07;;
72761;SDS011;60886;55.034;73.150;2023-02-01T00:32:47;20.50;;;8.65;;
72761;SDS011;60886;55.034;73.150;2023-02-01T00:35:49;26.97;;;7.07;;
72761;SDS011;60886;55.034;73.150;2023-02-01T00:38:51;19.17;;;7.72;;
72761;SDS011;60886;55.034;73.150;2023-02-01T00:41:52;16.17;;;6.60;;
72761;SDS011;60886;55.034;73.150;2023-02-01T00:44:53;13.23;;;6.07;;
72761;SDS011;60886;55.034;73.150;2023-02-01T00:47:55;19.75;;;6.75;;
72761;SDS011;60886;55.034;73.150;2023-02-01T00:51:00;16.67;;;7.40;;
72761;SDS011;60886;55.034;73.150;2023-02-01T00:54:08;19.03;;;7.73;;
72761;SDS011;60886;55.034;73.150;2023-02-01T00:57:11;16.83;;;7.55;;
72761;SDS011;60886;55.034;73.150;2023-02-01T01:00:23;19.20;;;7.23;;
72761;SDS011;60886;55.034;73.150;2023-02-01T01:07:45;28.63;;;8.35;;
72761;SDS011;60886;55.034;73.150;2023-02-01T01:10:47;22.93;;;6.63;;
72761;SDS011;60886;55.034;73.150;2023-02-01T01:14:01;22.07;;;8.13;;
72761;SDS011;60886;55.034;73.150;2023-02-01T01:17:03;21.88;;;8.82;;
72761;SDS011;60886;55.034;73.150;2023-02-01T01:20:05;24.33;;;10.20;;
72761;SDS011;60886;55.034;73.150;2023-02-01T01:23:07;23.70;;;10.25;;
72761;SDS011;60886;55.034;73.150;2023-02-01T01:26:20;24.80;;;9.70;;
72761;SDS011;60886;55.034;73.150;2023-02-01T01:29:24;17.63;;;6.53;;
72761;SDS011;60886;55.034;73.150;2023-02-01T01:32:37;23.80;;;8.90;;
72761;SDS011;60886;55.034;73.150;2023-02-01T01:35:38;19.80;;;10.97;;
72761;SDS011;60886;55.034;73.150;2023-02-01T01:38:49;25.03;;;9.17;;
72761;SDS011;60886;55.034;73.150;2023-02-01T01:42:02;25.77;;;10.52;;
72761;SDS011;60886;55.034;73.150;2023-02-01T01:45:08;25.53;;;9.20;;
72761;SDS011;60886;55.034;73.150;2023-02-01T01:48:40;23.00;;;9.34;;
72761;SDS011;60886;55.034;73.150;2023-02-01T01:51:52;26.08;;;10.60;;
72761;SDS011;60886;55.034;73.150;2023-02-01T01:54:56;21.60;;;7.90;;
72761;SDS011;60886;55.034;73.150;2023-02-01T01:58:02;19.30;;;8.18;;
72761;SDS011;60886;55.034;73.150;2023-02-01T02:01:11;17.63;;;7.07;;
72761;SDS011;60886;55.034;73.150;2023-02-01T02:04:13;21.73;;;7.87;;
72761;SDS011;60886;55.034;73.150;2023-02-01T02:07:29;21.80;;;6.57;;
72761;SDS011;60886;55.034;73.150;2023-02-01T02:10:34;19.07;;;7.43;;
72761;SDS011;60886;55.034;73.150;2023-02-01T02:14:07;11.52;;;4.82;;
72761;SDS011;60886;55.034;73.150;2023-02-01T02:17:18;17.48;;;6.43;;
72761;SDS011;60886;55.034;73.150;2023-02-01T02:24:54;13.00;;;5.03;;
72761;SDS011;60886;55.034;73.150;2023-02-01T02:39:19;14.23;;;5.53;;
72761;SDS011;60886;55.034;73.150;2023-02-01T02:42:57;21.38;;;9.85;;
72761;SDS011;60886;55.034;73.150;2023-02-01T02:46:40;17.35;;;5.65;;
72761;SDS011;60886;55.034;73.150;2023-02-01T02:54:00;17.10;;;6.55;;
72761;SDS011;60886;55.034;73.150;2023-02-01T02:57:29;22.65;;;7.72;;
72761;SDS011;60886;55.034;73.150;2023-02-01T03:00:53;20.13;;;7.90;;
72761;SDS011;60886;55.034;73.150;2023-02-01T03:04:15;14.57;;;6.33;;
72761;SDS011;60886;55.034;73.150;2023-02-01T03:14:09;26.23;;;9.93;;
72761;SDS011;60886;55.034;73.150;2023-02-01T03:17:14;11.18;;;3.97;;
72761;SDS011;60886;55.034;73.150;2023-02-01T03:20:20;15.73;;;6.97;;
72761;SDS011;60886;55.034;73.150;2023-02-01T03:23:40;22.78;;;9.60;;
72761;SDS011;60886;55.034;73.150;2023-02-01T03:26:46;21.07;;;8.57;;
72761;SDS011;60886;55.034;73.150;2023-02-01T03:29:58;20.02;;;8.40;;
72761;SDS011;60886;55.034;73.150;2023-02-01T03:33:13;17.73;;;6.88;;
72761;SDS011;60886;55.034;73.150;2023-02-01T03:39:39;31.80;;;13.17;;
72761;SDS011;60886;55.034;73.150;2023-02-01T03:42:55;28.70;;;10.47;;
72761;SDS011;60886;55.034;73.150;2023-02-01T03:46:00;28.80;;;12.43;;
72761;SDS011;60886;55.034;73.150;2023-02-01T03:49:22;28.60;;;11.43;;
72761;SDS011;60886;55.034;73.150;2023-02-01T03:52:51;17.90;;;10.65;;
72761;SDS011;60886;55.034;73.150;2023-02-01T03:56:06;32.77;;;12.20;;
72761;SDS011;60886;55.034;73.150;2023-02-01T03:59:19;16.93;;;7.97;;
72761;SDS011;60886;55.034;73.150;2023-02-01T04:02:21;30.30;;;9.75;;
72761;SDS011;60886;55.034;73.150;2023-02-01T04:05:33;23.37;;;9.83;;
72761;SDS011;60886;55.034;73.150;2023-02-01T04:08:43;25.63;;;10.52;;
72761;SDS011;60886;55.034;73.150;2023-02-01T04:11:44;26.25;;;10.93;;
72761;SDS011;60886;55.034;73.150;2023-02-01T04:14:46;29.67;;;12.07;;
72761;SDS011;60886;55.034;73.150;2023-02-01T04:17:53;29.25;;;10.35;;
72761;SDS011;60886;55.034;73.150;2023-02-01T04:21:04;30.47;;;12.63;;
72761;SDS011;60886;55.034;73.150;2023-02-01T04:24:06;24.53;;;10.57;;
72761;SDS011;60886;55.034;73.150;2023-02-01T04:27:07;29.45;;;10.85;;
72761;SDS011;60886;55.034;73.150;2023-02-01T04:30:11;32.67;;;11.03;;
72761;SDS011;60886;55.034;73.150;2023-02-01T04:33:13;21.85;;;9.27;;
72761;SDS011;60886;55.034;73.150;2023-02-01T04:36:14;30.00;;;11.23;;
72761;SDS011;60886;55.034;73.150;2023-02-01T04:39:17;23.88;;;9.52;;
72761;SDS011;60886;55.034;73.150;2023-02-01T04:42:19;22.77;;;8.57;;
72761;SDS011;60886;55.034;73.150;2023-02-01T04:45:26;23.30;;;10.00;;
72761;SDS011;60886;55.034;73.150;2023-02-01T04:48:28;17.73;;;7.85;;
72761;SDS011;60886;55.034;73.150;2023-02-01T04:51:30;30.13;;;11.00;;
72761;SDS011;60886;55.034;73.150;2023-02-01T04:54:41;28.17;;;9.90;;
72761;SDS011;60886;55.034;73.150;2023-02-01T04:57:43;32.47;;;13.57;;
72761;SDS011;60886;55.034;73.150;2023-02-01T05:00:51;20.30;;;7.77;;
72761;SDS011;60886;55.034;73.150;2023-02-01T05:03:53;22.42;;;9.88;;
72761;SDS011;60886;55.034;73.150;2023-02-01T05:07:06;22.35;;;7.65;;
72761;SDS011;60886;55.034;73.150;2023-02-01T05:10:08;22.83;;;8.30;;
72761;SDS011;60886;55.034;73.150;2023-02-01T05:13:11;25.40;;;9.80;;
72761;SDS011;60886;55.034;73.150;2023-02-01T05:16:32;29.38;;;10.13;;
72761;SDS011;60886;55.034;73.150;2023-02-01T05:19:45;24.47;;;8.43;;
72761;SDS011;60886;55.034;73.150;2023-02-01T05:22:48;49.20;;;11.05;;
72761;SDS011;60886;55.034;73.150;2023-02-01T05:26:01;26.03;;;11.40;;
72761;SDS011;60886;55.034;73.150;2023-02-01T05:29:04;27.85;;;8.73;;
72761;SDS011;60886;55.034;73.150;2023-02-01T05:32:08;25.38;;;9.05;;
72761;SDS011;60886;55.034;73.150;2023-02-01T05:35:10;40.47;;;9.83;;
72761;SDS011;60886;55.034;73.150;2023-02-01T05:38:12;26.33;;;9.50;;
72761;SDS011;60886;55.034;73.150;2023-02-01T05:41:14;31.33;;;11.70;;
72761;SDS011;60886;55.034;73.150;2023-02-01T05:44:25;25.50;;;9.23;;
72761;SDS011;60886;55.034;73.150;2023-02-01T05:47:27;21.23;;;8.10;;
72761;SDS011;60886;55.034;73.150;2023-02-01T05:50:28;31.10;;;7.63;;
72761;SDS011;60886;55.034;73.150;2023-02-01T05:53:42;20.38;;;7.75;;
72761;SDS011;60886;55.034;73.150;2023-02-01T05:56:44;15.85;;;6.03;;
72761;SDS011;60886;55.034;73.150;2023-02-01T05:59:45;28.53;;;10.23;;
72761;SDS011;60886;55.034;73.150;2023-02-01T06:02:52;21.55;;;7.43;;
72761;SDS011;60886;55.034;73.150;2023-02-01T06:05:55;25.37;;;9.37;;
72761;SDS011;60886;55.034;73.150;2023-02-01T06:09:02;16.13;;;5.80;;
72761;SDS011;60886;55.034;73.150;2023-02-01T06:12:13;25.27;;;8.02;;
72761;SDS011;60886;55.034;73.150;2023-02-01T06:15:14;20.80;;;7.57;;
72761;SDS011;60886;55.034;73.150;2023-02-01T06:18:16;19.35;;;7.18;;
72761;SDS011;60886;55.034;73.150;2023-02-01T06:21:18;31.57;;;7.50;;
72761;SDS011;60886;55.034;73.150;2023-02-01T06:24:30;19.10;;;7.40;;
72761;SDS011;60886;55.034;73.150;2023-02-01T06:27:34;23.33;;;8.88;;
72761;SDS011;60886;55.034;73.150;2023-02-01T06:30:44;26.73;;;9.53;;
72761;SDS011;60886;55.034;73.150;2023-02-01T06:33:47;24.87;;;8.73;;
72761;SDS011;60886;55.034;73.150;2023-02-01T06:36:50;31.52;;;9.60;;
72761;SDS011;60886;55.034;73.150;2023-02-01T06:39:52;28.48;;;10.07;;
72761;SDS011;60886;55.034;73.150;2023-02-01T06:42:56;21.83;;;8.95;;
72761;SDS011;60886;55.034;73.150;2023-02-01T06:46:02;22.27;;;7.32;;
72761;SDS011;60886;55.034;73.150;2023-02-01T06:49:16;22.97;;;8.97;;
72761;SDS011;60886;55.034;73.150;2023-02-01T06:52:19;16.88;;;6.97;;
72761;SDS011;60886;55.034;73.150;2023-02-01T06:55:20;15.53;;;5.97;;
72761;SDS011;60886;55.034;73.150;2023-02-01T06:58:30;26.90;;;8.15;;
72761;SDS011;60886;55.034;73.150;2023-02-01T07:01:39;20.08;;;8.70;;
72761;SDS011;60886;55.034;73.150;2023-02-01T07:04:40;17.98;;;6.40;;
72761;SDS011;60886;55.034;73.150;2023-02-01T07:07:43;25.15;;;7.60;;
72761;SDS011;60886;55.034;73.150;2023-02-01T07:10:47;30.03;;;7.77;;
72761;SDS011;60886;55.034;73.150;2023-02-01T07:13:49;28.00;;;8.33;;
72761;SDS011;60886;55.034;73.150;2023-02-01T07:16:50;35.88;;;12.90;;
72761;SDS011;60886;55.034;73.150;2023-02-01T07:19:52;23.23;;;7.70;;
72761;SDS011;60886;55.034;73.150;2023-02-01T07:22:56;19.73;;;7.00;;
72761;SDS011;60886;55.034;73.150;2023-02-01T07:25:59;38.65;;;9.02;;
72761;SDS011;60886;55.034;73.150;2023-02-01T07:29:03;20.47;;;6.30;;
72761;SDS011;60886;55.034;73.150;2023-02-01T07:32:15;22.90;;;7.22;;
72761;SDS011;60886;55.034;73.150;2023-02-01T07:35:19;19.93;;;7.90;;
72761;SDS011;60886;55.034;73.150;2023-02-01T07:38:21;16.75;;;6.38;;
72761;SDS011;60886;55.034;73.150;2023-02-01T07:41:34;28.23;;;8.80;;
72761;SDS011;60886;55.034;73.150;2023-02-01T07:44:52;23.47;;;7.70;;
72761;SDS011;60886;55.034;73.150;2023-02-01T07:47:53;18.43;;;6.17;;
72761;SDS011;60886;55.034;73.150;2023-02-01T07:54:00;17.40;;;7.77;;
72761;SDS011;60886;55.034;73.150;2023-02-01T07:57:05;24.08;;;9.43;;
72761;SDS011;60886;55.034;73.150;2023-02-01T08:00:09;21.03;;;8.70;;
72761;SDS011;60886;55.034;73.150;2023-02-01T08:03:40;19.30;;;6.14;;
72761;SDS011;60886;55.034;73.150;2023-02-01T08:06:41;18.92;;;7.32;;
72761;SDS011;60886;55.034;73.150;2023-02-01T08:09:44;21.33;;;7.03;;
72761;SDS011;60886;55.034;73.150;2023-02-01T08:12:45;24.88;;;9.10;;
72761;SDS011;60886;55.034;73.150;2023-02-01T08:15:56;22.33;;;7.07;;
72761;SDS011;60886;55.034;73.150;2023-02-01T08:19:03;26.25;;;8.15;;
72761;SDS011;60886;55.034;73.150;2023-02-01T08:22:09;25.60;;;9.10;;
72761;SDS011;60886;55.034;73.150;2023-02-01T08:25:11;28.27;;;9.03;;
72761;SDS011;60886;55.034;73.150;2023-02-01T08:28:13;25.60;;;8.77;;
72761;SDS011;60886;55.034;73.150;2023-02-01T08:31:16;24.53;;;7.93;;
72761;SDS011;60886;55.034;73.150;2023-02-01T08:34:29;27.20;;;9.23;;
72761;SDS011;60886;55.034;73.150;2023-02-01T08:37:36;25.65;;;7.88;;
72761;SDS011;60886;55.034;73.150;2023-02-01T08:40:43;19.27;;;6.97;;
72761;SDS011;60886;55.034;73.150;2023-02-01T08:43:53;21.90;;;8.27;;
72761;SDS011;60886;55.034;73.150;2023-02-01T08:46:56;17.48;;;7.28;;
72761;SDS011;60886;55.034;73.150;2023-02-01T08:49:59;22.05;;;7.63;;
72761;SDS011;60886;55.034;73.150;2023-02-01T08:53:14;23.13;;;7.30;;
72761;SDS011;60886;55.034;73.150;2023-02-01T08:56:19;25.27;;;8.57;;
72761;SDS011;60886;55.034;73.150;2023-02-01T08:59:31;14.90;;;5.67;;
72761;SDS011;60886;55.034;73.150;2023-02-01T09:02:33;24.42;;;8.55;;
72761;SDS011;60886;55.034;73.150;2023-02-01T09:05:45;22.48;;;7.72;;
72761;SDS011;60886;55.034;73.150;2023-02-01T09:08:51;25.87;;;7.93;;
72761;SDS011;60886;55.034;73.150;2023-02-01T09:12:11;23.27;;;8.18;;
72761;SDS011;60886;55.034;73.150;2023-02-01T09:15:13;28.33;;;7.77;;
72761;SDS011;60886;55.034;73.150;2023-02-01T09:21:59;23.83;;;6.00;;
72761;SDS011;60886;55.034;73.150;2023-02-01T09:25:02;28.63;;;8.90;;
72761;SDS011;60886;55.034;73.150;2023-02-01T09:28:10;22.90;;;7.77;;
72761;SDS011;60886;55.034;73.150;2023-02-01T09:31:23;25.83;;;7.75;;
72761;SDS011;60886;55.034;73.150;2023-02-01T09:34:36;19.20;;;6.43;;
72761;SDS011;60886;55.034;73.150;2023-02-01T09:37:37;24.55;;;8.43;;
72761;SDS011;60886;55.034;73.150;2023-02-01T09:40:39;19.00;;;6.77;;
72761;SDS011;60886;55.034;73.150;2023-02-01T09:43:51;18.55;;;6.82;;
72761;SDS011;60886;55.034;73.150;2023-02-01T09:47:21;22.27;;;5.90;;
72761;SDS011;60886;55.034;73.150;2023-02-01T09:50:47;18.17;;;5.83;;
72761;SDS011;60886;55.034;73.150;2023-02-01T09:57:06;21.25;;;5.82;;
72761;SDS011;60886;55.034;73.150;2023-02-01T10:00:15;19.73;;;6.57;;
72761;SDS011;60886;55.034;73.150;2023-02-01T10:03:40;26.33;;;7.43;;
72761;SDS011;60886;55.034;73.150;2023-02-01T10:27:22;20.07;;;7.13;;
72761;SDS011;60886;55.034;73.150;2023-02-01T10:30:29;28.00;;;10.27;;
72761;SDS011;60886;55.034;73.150;2023-02-01T10:33:44;25.75;;;8.85;;
72761;SDS011;60886;55.034;73.150;2023-02-01T10:37:28;28.02;;;9.00;;
72761;SDS011;60886;55.034;73.150;2023-02-01T10:40:40;27.37;;;9.17;;
72761;SDS011;60886;55.034;73.150;2023-02-01T10:43:51;27.57;;;8.10;;
72761;SDS011;60886;55.034;73.150;2023-02-01T10:51:07;25.63;;;8.73;;
72761;SDS011;60886;55.034;73.150;2023-02-01T10:56:09;19.92;;;6.55;;
72761;SDS011;60886;55.034;73.150;2023-02-01T10:59:15;20.03;;;7.33;;
72761;SDS011;60886;55.034;73.150;2023-02-01T11:02:25;25.00;;;7.38;;
72761;SDS011;60886;55.034;73.150;2023-02-01T11:05:45;18.13;;;6.80;;
72761;SDS011;60886;55.034;73.150;2023-02-01T11:15:45;21.13;;;7.00;;
72761;SDS011;60886;55.034;73.150;2023-02-01T11:18:52;19.37;;;6.53;;
72761;SDS011;60886;55.034;73.150;2023-02-01T11:22:05;23.90;;;8.23;;
72761;SDS011;60886;55.034;73.150;2023-02-01T11:25:08;19.60;;;7.47;;
72761;SDS011;60886;55.034;73.150;2023-02-01T11:28:14;28.55;;;8.20;;
72761;SDS011;60886;55.034;73.150;2023-02-01T11:31:17;24.17;;;7.97;;
72761;SDS011;60886;55.034;73.150;2023-02-01T11:34:24;26.47;;;8.97;;
72761;SDS011;60886;55.034;73.150;2023-02-01T11:37:55;24.58;;;9.40;;
72761;SDS011;60886;55.034;73.150;2023-02-01T11:41:23;25.25;;;8.32;;
72761;SDS011;60886;55.034;73.150;2023-02-01T11:44:35;26.40;;;7.78;;
72761;SDS011;60886;55.034;73.150;2023-02-01T11:47:56;33.15;;;9.75;;
72761;SDS011;60886;55.034;73.150;2023-02-01T11:51:15;27.38;;;9.82;;
72761;SDS011;60886;55.034;73.150;2023-02-01T11:54:41;21.10;;;8.07;;
72761;SDS011;60886;55.034;73.150;2023-02-01T11:58:50;23.88;;;8.82;;
72761;SDS011;60886;55.034;73.150;2023-02-01T12:02:11;24.55;;;8.18;;
72761;SDS011;60886;55.034;73.150;2023-02-01T12:05:50;22.15;;;7.65;;
72761;SDS011;60886;55.034;73.150;2023-02-01T12:26:12;37.70;;;14.38;;
72761;SDS011;60886;55.034;73.150;2023-02-01T12:33:00;48.35;;;16.05;;
72761;SDS011;60886;55.034;73.150;2023-02-01T12:39:40;43.37;;;17.07;;
72761;SDS011;60886;55.034;73.150;2023-02-01T12:46:40;46.45;;;16.42;;
72761;SDS011;60886;55.034;73.150;2023-02-01T12:56:46;48.00;;;14.70;;
72761;SDS011;60886;55.034;73.150;2023-02-01T12:59:52;45.33;;;15.88;;
72761;SDS011;60886;55.034;73.150;2023-02-01T13:03:05;53.17;;;18.43;;
72761;SDS011;60886;55.034;73.150;2023-02-01T13:06:28;56.08;;;21.38;;
72761;SDS011;60886;55.034;73.150;2023-02-01T13:10:01;49.50;;;18.47;;
72761;SDS011;60886;55.034;73.150;2023-02-01T13:13:19;51.78;;;16.83;;
72761;SDS011;60886;55.034;73.150;2023-02-01T13:16:25;55.57;;;19.93;;
72761;SDS011;60886;55.034;73.150;2023-02-01T13:19:38;57.30;;;20.48;;
72761;SDS011;60886;55.034;73.150;2023-02-01T13:22:48;55.27;;;19.90;;
72761;SDS011;60886;55.034;73.150;2023-02-01T13:25:55;49.77;;;18.70;;
72761;SDS011;60886;55.034;73.150;2023-02-01T13:29:01;58.33;;;20.13;;
72761;SDS011;60886;55.034;73.150;2023-02-01T13:35:29;62.00;;;20.17;;
72761;SDS011;60886;55.034;73.150;2023-02-01T13:42:16;51.47;;;18.88;;
72761;SDS011;60886;55.034;73.150;2023-02-01T13:46:12;44.22;;;18.88;;
72761;SDS011;60886;55.034;73.150;2023-02-01T13:49:26;50.83;;;19.87;;
72761;SDS011;60886;55.034;73.150;2023-02-01T13:52:45;72.05;;;22.35;;
72761;SDS011;60886;55.034;73.150;2023-02-01T13:56:43;43.88;;;17.90;;
72761;SDS011;60886;55.034;73.150;2023-02-01T14:00:28;57.80;;;18.07;;
72761;SDS011;60886;55.034;73.150;2023-02-01T14:03:59;45.97;;;17.50;;
72761;SDS011;60886;55.034;73.150;2023-02-01T14:07:15;48.30;;;16.40;;
72761;SDS011;60886;55.034;73.150;2023-02-01T14:13:52;43.40;;;16.52;;
72761;SDS011;60886;55.034;73.150;2023-02-01T14:26:59;29.90;;;8.80;;
72761;SDS011;60886;55.034;73.150;2023-02-01T14:30:14;27.90;;;11.48;;
72761;SDS011;60886;55.034;73.150;2023-02-01T14:33:22;37.85;;;13.02;;
72761;SDS011;60886;55.034;73.150;2023-02-01T14:36:27;35.03;;;12.20;;
72761;SDS011;60886;55.034;73.150;2023-02-01T14:42:49;26.65;;;10.80;;
72761;SDS011;60886;55.034;73.150;2023-02-01T14:46:04;30.20;;;10.23;;
72761;SDS011;60886;55.034;73.150;2023-02-01T14:49:05;25.43;;;9.00;;
72761;SDS011;60886;55.034;73.150;2023-02-01T14:52:09;24.55;;;9.20;;
72761;SDS011;60886;55.034;73.150;2023-02-01T15:02:27;25.73;;;8.73;;
72761;SDS011;60886;55.034;73.150;2023-02-01T15:06:24;25.97;;;8.67;;
72761;SDS011;60886;55.034;73.150;2023-02-01T15:09:48;34.15;;;10.70;;
72761;SDS011;60886;55.034;73.150;2023-02-01T15:13:20;26.90;;;9.05;;
72761;SDS011;60886;55.034;73.150;2023-02-01T15:16:29;27.75;;;9.10;;
72761;SDS011;60886;55.034;73.150;2023-02-01T15:19:30;28.17;;;9.77;;
72761;SDS011;60886;55.034;73.150;2023-02-01T15:22:37;25.60;;;9.88;;
72761;SDS011;60886;55.034;73.150;2023-02-01T15:25:45;29.00;;;9.10;;
72761;SDS011;60886;55.034;73.150;2023-02-01T15:29:00;24.85;;;9.73;;
72761;SDS011;60886;55.034;73.150;2023-02-01T15:32:34;22.38;;;8.20;;
72761;SDS011;60886;55.034;73.150;2023-02-01T15:35:41;28.10;;;8.37;;
72761;SDS011;60886;55.034;73.150;2023-02-01T15:42:55;27.60;;;8.27;;
72761;SDS011;60886;55.034;73.150;2023-02-01T15:46:01;35.17;;;12.57;;
72761;SDS011;60886;55.034;73.150;2023-02-01T15:52:40;24.20;;;8.67;;
72761;SDS011;60886;55.034;73.150;2023-02-01T15:55:53;26.95;;;9.68;;
72761;SDS011;60886;55.034;73.150;2023-02-01T15:58:57;24.03;;;8.73;;
72761;SDS011;60886;55.034;73.150;2023-02-01T16:02:03;31.27;;;10.32;;
72761;SDS011;60886;55.034;73.150;2023-02-01T16:05:25;25.40;;;9.13;;
72761;SDS011;60886;55.034;73.150;2023-02-01T16:08:50;28.30;;;10.53;;
72761;SDS011;60886;55.034;73.150;2023-02-01T16:15:00;25.63;;;9.03;;
72761;SDS011;60886;55.034;73.150;2023-02-01T16:18:12;25.77;;;9.00;;
72761;SDS011;60886;55.034;73.150;2023-02-01T16:21:20;25.37;;;9.47;;
72761;SDS011;60886;55.034;73.150;2023-02-01T16:24:24;27.52;;;10.00;;
72761;SDS011;60886;55.034;73.150;2023-02-01T16:27:26;27.87;;;9.60;;
72761;SDS011;60886;55.034;73.150;2023-02-01T16:30:28;34.92;;;9.88;;
72761;SDS011;60886;55.034;73.150;2023-02-01T16:33:39;20.10;;;8.32;;
72761;SDS011;60886;55.034;73.150;2023-02-01T16:36:41;33.20;;;12.63;;
72761;SDS011;60886;55.034;73.150;2023-02-01T16:39:44;42.35;;;13.82;;
72761;SDS011;60886;55.034;73.150;2023-02-01T16:42:46;54.03;;;17.52;;
72761;SDS011;60886;55.034;73.150;2023-02-01T16:45:51;59.27;;;17.77;;
72761;SDS011;60886;55.034;73.150;2023-02-01T16:48:57;50.13;;;19.57;;
72761;SDS011;60886;55.034;73.150;2023-02-01T16:52:00;59.60;;;20.40;;
72761;SDS011;60886;55.034;73.150;2023-02-01T16:55:09;64.13;;;21.53;;
72761;SDS011;60886;55.034;73.150;2023-02-01T16:58:18;57.17;;;21.13;;
72761;SDS011;60886;55.034;73.150;2023-02-01T17:01:21;45.07;;;17.77;;
72761;SDS011;60886;55.034;73.150;2023-02-01T17:04:23;46.47;;;17.13;;
72761;SDS011;60886;55.034;73.150;2023-02-01T17:07:30;29.25;;;12.48;;
72761;SDS011;60886;55.034;73.150;2023-02-01T17:10:41;40.17;;;18.13;;
72761;SDS011;60886;55.034;73.150;2023-02-01T17:14:24;47.70;;;17.50;;
72761;SDS011;60886;55.034;73.150;2023-02-01T17:17:44;47.60;;;16.33;;
72761;SDS011;60886;55.034;73.150;2023-02-01T17:20:47;50.40;;;18.58;;
72761;SDS011;60886;55.034;73.150;2023-02-01T17:23:51;42.35;;;14.25;;
72761;SDS011;60886;55.034;73.150;2023-02-01T17:26:59;33.63;;;14.43;;
72761;SDS011;60886;55.034;73.150;2023-02-01T17:30:02;42.70;;;15.37;;
72761;SDS011;60886;55.034;73.150;2023-02-01T17:36:20;99.15;;;37.22;;
72761;SDS011;60886;55.034;73.150;2023-02-01T17:39:21;46.83;;;18.55;;
72761;SDS011;60886;55.034;73.150;2023-02-01T17:42:42;36.65;;;16.02;;
72761;SDS011;60886;55.034;73.150;2023-02-01T17:48:54;49.03;;;17.55;;
72761;SDS011;60886;55.034;73.150;2023-02-01T17:52:08;41.38;;;15.73;;
72761;SDS011;60886;55.034;73.150;2023-02-01T17:55:20;59.53;;;17.10;;
72761;SDS011;60886;55.034;73.150;2023-02-01T17:58:26;41.45;;;14.82;;
72761;SDS011;60886;55.034;73.150;2023-02-01T18:01:35;35.15;;;11.75;;
72761;SDS011;60886;55.034;73.150;2023-02-01T18:04:39;42.03;;;16.88;;
72761;SDS011;60886;55.034;73.150;2023-02-01T18:07:43;37.83;;;14.85;;
72761;SDS011;60886;55.034;73.150;2023-02-01T18:10:44;56.40;;;17.20;;
72761;SDS011;60886;55.034;73.150;2023-02-01T18:13:53;39.13;;;15.87;;
72761;SDS011;60886;55.034;73.150;2023-02-01T18:16:54;44.33;;;14.57;;
72761;SDS011;60886;55.034;73.150;2023-02-01T18:19:57;39.00;;;15.37;;
72761;SDS011;60886;55.034;73.150;2023-02-01T18:22:58;34.80;;;13.93;;
72761;SDS011;60886;55.034;73.150;2023-02-01T18:26:00;33.72;;;16.33;;
72761;SDS011;60886;55.034;73.150;2023-02-01T18:29:03;33.58;;;12.85;;
72761;SDS011;60886;55.034;73.150;2023-02-01T18:32:11;47.38;;;14.98;;
72761;SDS011;60886;55.034;73.150;2023-02-01T18:38:45;36.13;;;14.16;;
72761;SDS011;60886;55.034;73.150;2023-02-01T18:41:54;44.17;;;15.50;;
72761;SDS011;60886;55.034;73.150;2023-02-01T18:45:32;38.00;;;14.95;;
72761;SDS011;60886;55.034;73.150;2023-02-01T18:49:00;29.17;;;12.87;;
72761;SDS011;60886;55.034;73.150;2023-02-01T18:52:33;29.52;;;10.65;;
72761;SDS011;60886;55.034;73.150;2023-02-01T18:55:42;36.23;;;12.63;;
72761;SDS011;60886;55.034;73.150;2023-02-01T18:58:45;23.98;;;10.68;;
72761;SDS011;60886;55.034;73.150;2023-02-01T19:01:55;32.33;;;11.47;;
72761;SDS011;60886;55.034;73.150;2023-02-01T19:05:07;38.23;;;11.47;;
72761;SDS011;60886;55.034;73.150;2023-02-01T19:08:17;29.70;;;10.65;;
72761;SDS011;60886;55.034;73.150;2023-02-01T19:11:38;37.37;;;13.07;;
72761;SDS011;60886;55.034;73.150;2023-02-01T19:15:20;36.60;;;11.90;;
72761;SDS011;60886;55.034;73.150;2023-02-01T19:18:53;34.95;;;11.15;;
72761;SDS011;60886;55.034;73.150;2023-02-01T19:22:24;22.23;;;9.23;;
72761;SDS011;60886;55.034;73.150;2023-02-01T19:26:02;23.60;;;7.97;;
72761;SDS011;60886;55.034;73.150;2023-02-01T19:29:31;16.42;;;6.35;;
72761;SDS011;60886;55.034;73.150;2023-02-01T19:32:33;25.23;;;9.07;;
72761;SDS011;60886;55.034;73.150;2023-02-01T19:36:02;24.73;;;8.50;;
72761;SDS011;60886;55.034;73.150;2023-02-01T19:39:05;28.13;;;9.95;;
72761;SDS011;60886;55.034;73.150;2023-02-01T19:42:45;28.75;;;8.82;;
72761;SDS011;60886;55.034;73.150;2023-02-01T19:46:14;20.27;;;5.97;;
72761;SDS011;60886;55.034;73.150;2023-02-01T19:49:45;30.85;;;8.30;;
72761;SDS011;60886;55.034;73.150;2023-02-01T19:53:49;20.39;;;7.71;;
72761;SDS011;60886;55.034;73.150;2023-02-01T19:57:23;23.70;;;7.57;;
72761;SDS011;60886;55.034;73.150;2023-02-01T20:05:13;27.88;;;8.85;;
72761;SDS011;60886;55.034;73.150;2023-02-01T20:08:39;23.67;;;9.02;;
72761;SDS011;60886;55.034;73.150;2023-02-01T20:12:01;21.17;;;7.93;;
72761;SDS011;60886;55.034;73.150;2023-02-01T20:15:11;24.10;;;7.77;;
72761;SDS011;60886;55.034;73.150;2023-02-01T20:18:52;26.35;;;8.18;;
72761;SDS011;60886;55.034;73.150;2023-02-01T20:21:54;18.40;;;7.15;;
72761;SDS011;60886;55.034;73.150;2023-02-01T20:25:07;22.77;;;7.40;;
72761;SDS011;60886;55.034;73.150;2023-02-01T20:28:23;19.27;;;6.63;;
72761;SDS011;60886;55.034;73.150;2023-02-01T20:39:04;18.97;;;7.70;;
72761;SDS011;60886;55.034;73.150;2023-02-01T20:42:06;13.82;;;6.00;;
72761;SDS011;60886;55.034;73.150;2023-02-01T20:46:00;28.15;;;7.80;;
72761;SDS011;60886;55.034;73.150;2023-02-01T20:49:18;22.90;;;8.73;;
72761;SDS011;60886;55.034;73.150;2023-02-01T20:52:30;23.40;;;7.45;;
72761;SDS011;60886;55.034;73.150;2023-02-01T20:55:44;24.60;;;8.13;;
72761;SDS011;60886;55.034;73.150;2023-02-01T20:59:00;21.77;;;9.40;;
72761;SDS011;60886;55.034;73.150;2023-02-01T21:02:35;19.60;;;7.97;;
72761;SDS011;60886;55.034;73.150;2023-02-01T21:05:47;24.33;;;8.17;;
72761;SDS011;60886;55.034;73.150;2023-02-01T21:08:59;17.33;;;7.73;;
72761;SDS011;60886;55.034;73.150;2023-02-01T21:12:15;17.52;;;7.47;;
72761;SDS011;60886;55.034;73.150;2023-02-01T21:15:17;29.17;;;7.83;;
72761;SDS011;60886;55.034;73.150;2023-02-01T21:18:21;21.48;;;8.65;;
72761;SDS011;60886;55.034;73.150;2023-02-01T21:21:32;19.80;;;7.40;;
72761;SDS011;60886;55.034;73.150;2023-02-01T21:24:53;22.52;;;7.88;;
72761;SDS011;60886;55.034;73.150;2023-02-01T21:28:04;20.03;;;6.50;;
72761;SDS011;60886;55.034;73.150;2023-02-01T21:31:06;21.60;;;7.60;;